createdAt,value
2022-09-26T00:00:11.674Z,14.21
2022-09-26T00:01:11.456Z,14.21
2022-09-26T00:02:10.565Z,14.205
2022-09-26T00:03:11.440Z,14.24
2022-09-26T00:04:10.305Z,14.25
2022-09-26T00:05:11.188Z,14.25
2022-09-26T00:06:11.556Z,14.25
2022-09-26T00:07:11.335Z,14.255
2022-09-26T00:08:10.911Z,14.28
2022-09-26T00:09:10.284Z,14.285
2022-09-26T00:10:11.110Z,14.3
2022-09-26T00:11:10.788Z,14.31
2022-09-26T00:12:11.510Z,14.3216
2022-09-26T00:13:11.581Z,14.31
2022-09-26T00:14:09.846Z,14.333
2022-09-26T00:15:10.708Z,14.362
2022-09-26T00:16:11.200Z,14.35
2022-09-26T00:17:11.209Z,14.3741
2022-09-26T00:18:10.965Z,14.372
2022-09-26T00:19:10.178Z,14.3741
2022-09-26T00:20:10.812Z,14.373
2022-09-26T00:21:11.117Z,14.39
2022-09-26T00:22:09.948Z,14.3741
2022-09-26T00:23:11.606Z,14.3683
2022-09-26T00:24:10.463Z,14.385
2022-09-26T00:25:10.718Z,14.3741
2022-09-26T00:26:10.622Z,14.38
2022-09-26T00:27:11.303Z,14.3692
2022-09-26T00:28:10.960Z,14.36
2022-09-26T00:29:10.650Z,14.353
2022-09-26T00:30:10.590Z,14.38
2022-09-26T00:31:10.690Z,14.36
2022-09-26T00:32:11.495Z,14.358
2022-09-26T00:33:11.107Z,14.335
2022-09-26T00:34:10.761Z,14.353
2022-09-26T00:35:11.395Z,14.3683
2022-09-26T00:36:11.069Z,14.3672
2022-09-26T00:37:11.820Z,14.373
2022-09-26T00:38:10.766Z,14.379
2022-09-26T00:39:09.663Z,14.38
2022-09-26T00:40:11.428Z,14.385
2022-09-26T00:41:11.336Z,14.41
2022-09-26T00:42:11.882Z,14.395
2022-09-26T00:43:11.138Z,14.3791
2022-09-26T00:44:09.846Z,14.39
2022-09-26T00:45:11.449Z,14.39
2022-09-26T00:46:11.761Z,14.3791
2022-09-26T00:47:11.264Z,14.39
2022-09-26T00:48:11.029Z,14.3741
2022-09-26T00:49:09.969Z,14.362
2022-09-26T00:50:11.039Z,14.3741
2022-09-26T00:51:10.800Z,14.384
2022-09-26T00:52:10.929Z,14.361
2022-09-26T00:53:11.591Z,14.38
2022-09-26T00:54:10.592Z,14.41
2022-09-26T00:55:10.605Z,14.395
2022-09-26T00:56:11.532Z,14.3791
2022-09-26T00:57:11.633Z,14.362
2022-09-26T00:58:11.018Z,14.39
2022-09-26T00:59:10.641Z,14.35
2022-09-26T01:00:11.287Z,14.35
2022-09-26T01:01:10.884Z,14.327
2022-09-26T01:02:11.504Z,14.345
2022-09-26T01:03:10.988Z,14.333
2022-09-26T01:04:10.103Z,14.328
2022-09-26T01:05:11.659Z,14.3158
2022-09-26T01:06:10.729Z,14.306
2022-09-26T01:07:10.936Z,14.3158
2022-09-26T01:08:10.893Z,14.305
2022-09-26T01:09:10.349Z,14.295
2022-09-26T01:10:10.619Z,14.3108
2022-09-26T01:11:16.154Z,14.29
2022-09-26T01:12:11.141Z,14.305
2022-09-26T01:13:10.540Z,14.3
2022-09-26T01:14:10.335Z,14.295
2022-09-26T01:15:10.777Z,14.339
2022-09-26T01:16:10.758Z,14.355
2022-09-26T01:17:11.500Z,14.373
2022-09-26T01:18:10.805Z,14.378
2022-09-26T01:19:09.723Z,14.385
2022-09-26T01:20:11.249Z,14.4
2022-09-26T01:21:11.516Z,14.395
2022-09-26T01:22:10.458Z,14.395
2022-09-26T01:23:11.328Z,14.415
2022-09-26T01:24:09.927Z,14.445
2022-09-26T01:25:11.741Z,14.415
2022-09-26T01:26:11.058Z,14.44
2022-09-26T01:27:10.575Z,14.435
2022-09-26T01:28:11.577Z,14.465
2022-09-26T01:29:10.603Z,14.45
2022-09-26T01:30:10.808Z,14.465
2022-09-26T01:31:11.736Z,14.47
2022-09-26T01:32:11.285Z,14.47
2022-09-26T01:33:10.672Z,14.465
2022-09-26T01:34:10.554Z,14.475
2022-09-26T01:35:10.713Z,14.49
2022-09-26T01:36:10.042Z,14.485
2022-09-26T01:37:11.593Z,14.49
2022-09-26T01:38:10.839Z,14.495
2022-09-26T01:39:09.895Z,14.5
2022-09-26T01:40:10.876Z,14.515
2022-09-26T01:41:10.889Z,14.515
2022-09-26T01:42:11.303Z,14.52
2022-09-26T01:43:10.678Z,14.545
2022-09-26T01:44:09.591Z,14.53
2022-09-26T01:45:10.912Z,14.545
2022-09-26T01:46:10.852Z,14.535
2022-09-26T01:47:10.888Z,14.53
2022-09-26T01:48:11.266Z,14.52
2022-09-26T01:49:09.864Z,14.525
2022-09-26T01:50:10.573Z,14.5109
2022-09-26T01:51:11.017Z,14.536
2022-09-26T01:52:10.006Z,14.5381
2022-09-26T01:53:10.885Z,14.5184
2022-09-26T01:54:10.271Z,14.535
2022-09-26T01:55:10.819Z,14.5272
2022-09-26T01:56:11.268Z,14.532
2022-09-26T01:57:10.865Z,14.543
2022-09-26T01:58:10.981Z,14.515
2022-09-26T01:59:10.630Z,14.5
2022-09-26T02:00:10.493Z,14.465
2022-09-26T02:01:12.026Z,14.4307
2022-09-26T02:02:11.150Z,14.429
2022-09-26T02:03:10.580Z,14.405
2022-09-26T02:04:10.629Z,14.345
2022-09-26T02:05:11.350Z,14.351
2022-09-26T02:06:10.704Z,14.31
2022-09-26T02:07:11.346Z,14.31
2022-09-26T02:08:11.028Z,14.25
2022-09-26T02:09:09.844Z,14.245
2022-09-26T02:10:11.424Z,14.225
2022-09-26T02:11:10.305Z,14.2
2022-09-26T02:12:10.725Z,14.166
2022-09-26T02:13:11.138Z,14.1891
2022-09-26T02:14:10.138Z,14.177
2022-09-26T02:15:11.032Z,14.172
2022-09-26T02:16:10.901Z,14.172
2022-09-26T02:17:10.572Z,14.183
2022-09-26T02:18:10.793Z,14.1783
2022-09-26T02:19:10.512Z,14.193
2022-09-26T02:20:10.878Z,14.205
2022-09-26T02:21:11.535Z,14.215
2022-09-26T02:22:11.281Z,14.205
2022-09-26T02:23:10.637Z,14.2
2022-09-26T02:24:09.972Z,14.2
2022-09-26T02:25:10.924Z,14.195
2022-09-26T02:26:11.723Z,14.193
2022-09-26T02:27:11.366Z,14.176
2022-09-26T02:28:11.084Z,14.177
2022-09-26T02:29:10.884Z,14.1783
2022-09-26T02:30:11.393Z,14.166
2022-09-26T02:31:11.073Z,14.1783
2022-09-26T02:32:11.853Z,14.16
2022-09-26T02:33:11.405Z,14.143
2022-09-26T02:34:10.086Z,14.149
2022-09-26T02:35:11.872Z,14.1
2022-09-26T02:36:10.848Z,14.105
2022-09-26T02:37:10.894Z,14.1
2022-09-26T02:38:11.739Z,14.105
2022-09-26T02:39:10.435Z,14.095
2022-09-26T02:40:10.785Z,14.08
2022-09-26T02:41:11.810Z,14.095
2022-09-26T02:42:11.221Z,14.075
2022-09-26T02:43:10.483Z,14.06
2022-09-26T02:44:10.759Z,14.05
2022-09-26T02:45:11.107Z,14.06
2022-09-26T02:46:10.750Z,14.06
2022-09-26T02:47:10.911Z,14.04
2022-09-26T02:48:11.289Z,14.045
2022-09-26T02:49:11.090Z,14.02
2022-09-26T02:50:11.472Z,14.025
2022-09-26T02:51:10.855Z,14.01
2022-09-26T02:52:10.366Z,13.995
2022-09-26T02:53:10.811Z,13.995
2022-09-26T02:54:09.833Z,13.975
2022-09-26T02:55:11.637Z,13.945
2022-09-26T02:56:10.824Z,13.94
2022-09-26T02:57:10.851Z,13.95
2022-09-26T02:58:11.824Z,13.95
2022-09-26T02:59:10.645Z,13.95
2022-09-26T03:00:10.854Z,13.96
2022-09-26T03:01:10.981Z,13.95
2022-09-26T03:02:10.708Z,13.95
2022-09-26T03:03:10.123Z,13.97
2022-09-26T03:04:11.334Z,13.955
2022-09-26T03:05:10.083Z,13.95
2022-09-26T03:06:11.196Z,13.955
2022-09-26T03:07:10.948Z,13.945
2022-09-26T03:08:10.190Z,13.945
2022-09-26T03:09:11.719Z,13.955
2022-09-26T03:10:11.504Z,13.94
2022-09-26T03:11:10.668Z,13.94
2022-09-26T03:12:11.564Z,13.945
2022-09-26T03:13:11.130Z,13.945
2022-09-26T03:14:11.009Z,13.9563
2022-09-26T03:15:12.061Z,13.9584
2022-09-26T03:16:11.324Z,13.94
2022-09-26T03:17:10.832Z,13.94
2022-09-26T03:18:11.518Z,13.9261
2022-09-26T03:19:10.050Z,13.934
2022-09-26T03:20:10.732Z,13.925
2022-09-26T03:21:10.845Z,13.916
2022-09-26T03:22:11.205Z,13.9072
2022-09-26T03:23:11.320Z,13.895
2022-09-26T03:24:10.943Z,13.91
2022-09-26T03:25:10.912Z,13.93
2022-09-26T03:26:10.993Z,13.915
2022-09-26T03:27:11.406Z,13.94
2022-09-26T03:28:10.730Z,13.935
2022-09-26T03:29:09.409Z,13.955
2022-09-26T03:30:11.344Z,13.95
2022-09-26T03:31:11.100Z,13.95
2022-09-26T03:32:10.714Z,13.93
2022-09-26T03:33:11.345Z,13.92
2022-09-26T03:34:10.216Z,13.925
2022-09-26T03:35:11.706Z,13.915
2022-09-26T03:36:11.295Z,13.92
2022-09-26T03:37:10.660Z,13.925
2022-09-26T03:38:14.357Z,13.915
2022-09-26T03:39:09.754Z,13.905
2022-09-26T03:40:10.507Z,13.92
2022-09-26T03:41:11.042Z,13.905
2022-09-26T03:42:10.970Z,13.9
2022-09-26T03:43:10.883Z,13.88
2022-09-26T03:44:11.483Z,13.895
2022-09-26T03:45:10.642Z,13.895
2022-09-26T03:46:10.300Z,13.93
2022-09-26T03:47:11.239Z,13.94
2022-09-26T03:48:11.090Z,13.945
2022-09-26T03:49:11.136Z,13.955
2022-09-26T03:50:11.008Z,13.97
2022-09-26T03:51:11.203Z,13.985
2022-09-26T03:52:11.468Z,13.96
2022-09-26T03:53:10.896Z,13.97
2022-09-26T03:54:09.511Z,13.965
2022-09-26T03:55:11.733Z,13.98
2022-09-26T03:56:11.494Z,13.97
2022-09-26T03:57:10.986Z,13.97
2022-09-26T03:58:11.797Z,13.955
2022-09-26T03:59:10.412Z,13.915
2022-09-26T04:00:10.630Z,13.91
2022-09-26T04:01:11.991Z,13.89
2022-09-26T04:02:11.346Z,13.8791
2022-09-26T04:03:10.799Z,13.867
2022-09-26T04:04:11.044Z,13.873
2022-09-26T04:05:10.965Z,13.856
2022-09-26T04:06:11.537Z,13.8683
2022-09-26T04:07:11.344Z,13.833
2022-09-26T04:08:11.053Z,13.845
2022-09-26T04:09:15.913Z,13.85
2022-09-26T04:10:11.358Z,13.845
2022-09-26T04:11:10.934Z,13.85
2022-09-26T04:12:11.758Z,13.827
2022-09-26T04:13:19.869Z,13.812
2022-09-26T04:14:09.501Z,13.8
2022-09-26T04:15:11.319Z,13.79
2022-09-26T04:16:11.185Z,13.785
2022-09-26T04:17:10.508Z,13.785
2022-09-26T04:18:11.268Z,13.78
2022-09-26T04:19:09.888Z,13.785
2022-09-26T04:20:10.732Z,13.75
2022-09-26T04:21:11.691Z,13.775
2022-09-26T04:22:10.796Z,13.795
2022-09-26T04:23:11.441Z,13.833
2022-09-26T04:24:09.955Z,13.8158
2022-09-26T04:25:10.113Z,13.816
2022-09-26T04:26:11.590Z,13.845
2022-09-26T04:27:11.084Z,13.862
2022-09-26T04:28:10.737Z,13.8741
2022-09-26T04:29:10.519Z,13.885
2022-09-26T04:30:11.035Z,13.9
2022-09-26T04:31:11.494Z,13.91
2022-09-26T04:32:11.615Z,13.894
2022-09-26T04:33:10.980Z,13.905
2022-09-26T04:34:10.111Z,13.915
2022-09-26T04:35:11.273Z,13.93
2022-09-26T04:36:10.795Z,13.9
2022-09-26T04:37:11.338Z,13.873
2022-09-26T04:38:11.211Z,13.9
2022-09-26T04:39:09.795Z,13.8909
2022-09-26T04:40:10.959Z,13.907
2022-09-26T04:41:11.456Z,13.9
2022-09-26T04:42:10.727Z,13.8963
2022-09-26T04:43:11.040Z,13.858
2022-09-26T04:44:10.657Z,13.845
2022-09-26T04:45:10.759Z,13.86
2022-09-26T04:46:10.598Z,13.85
2022-09-26T04:47:10.899Z,13.8741
2022-09-26T04:48:10.776Z,13.89
2022-09-26T04:49:10.607Z,13.8741
2022-09-26T04:50:10.524Z,13.883
2022-09-26T04:51:10.806Z,13.8683
2022-09-26T04:52:10.626Z,13.877
2022-09-26T04:53:10.488Z,13.905
2022-09-26T04:54:09.378Z,13.895
2022-09-26T04:55:11.208Z,13.885
2022-09-26T04:56:11.103Z,13.856
2022-09-26T04:57:10.818Z,13.845
2022-09-26T04:58:11.210Z,13.845
2022-09-26T04:59:10.230Z,13.795
2022-09-26T05:00:10.881Z,13.795
2022-09-26T05:01:11.173Z,13.765
2022-09-26T05:02:10.527Z,13.765
2022-09-26T05:03:11.101Z,13.755
2022-09-26T05:04:09.701Z,13.765
2022-09-26T05:05:10.818Z,13.765
2022-09-26T05:06:10.740Z,13.795
2022-09-26T05:07:10.595Z,13.81
2022-09-26T05:08:10.243Z,13.795
2022-09-26T05:09:11.965Z,13.8158
2022-09-26T05:10:10.471Z,13.785
2022-09-26T05:11:10.095Z,13.785
2022-09-26T05:12:11.252Z,13.78
2022-09-26T05:13:10.195Z,13.805
2022-09-26T05:14:10.134Z,13.8
2022-09-26T05:15:10.422Z,13.8158
2022-09-26T05:16:10.371Z,13.839
2022-09-26T05:17:11.161Z,13.85
2022-09-26T05:18:11.356Z,13.839
2022-09-26T05:19:09.969Z,13.845
2022-09-26T05:20:11.460Z,13.839
2022-09-26T05:21:11.259Z,13.833
2022-09-26T05:22:11.056Z,13.827
2022-09-26T05:23:12.001Z,13.81
2022-09-26T05:24:10.593Z,13.828
2022-09-26T05:25:10.377Z,13.81
2022-09-26T05:26:11.693Z,13.795
2022-09-26T05:27:10.605Z,13.75
2022-09-26T05:28:10.500Z,13.725
2022-09-26T05:29:11.575Z,13.755
2022-09-26T05:30:10.845Z,13.76
2022-09-26T05:31:10.642Z,13.745
2022-09-26T05:32:11.448Z,13.765
2022-09-26T05:33:10.206Z,13.775
2022-09-26T05:34:14.362Z,13.775
2022-09-26T05:35:11.066Z,13.79
2022-09-26T05:36:10.753Z,13.76
2022-09-26T05:37:10.932Z,13.785
2022-09-26T05:38:10.110Z,13.805
2022-09-26T05:39:11.515Z,13.795
2022-09-26T05:40:10.939Z,13.805
2022-09-26T05:41:10.692Z,13.8108
2022-09-26T05:42:11.734Z,13.845
2022-09-26T05:43:11.310Z,13.845
2022-09-26T05:44:10.892Z,13.855
2022-09-26T05:45:11.536Z,13.884
2022-09-26T05:46:10.281Z,13.905
2022-09-26T05:47:10.158Z,13.91
2022-09-26T05:48:10.744Z,13.935
2022-09-26T05:49:10.036Z,13.945
2022-09-26T05:50:10.945Z,13.955
2022-09-26T05:51:10.748Z,13.975
2022-09-26T05:52:11.070Z,13.98
2022-09-26T05:53:10.691Z,13.985
2022-09-26T05:54:10.684Z,13.99
2022-09-26T05:55:10.589Z,14
2022-09-26T05:56:12.769Z,14.02
2022-09-26T05:57:10.595Z,14.055
2022-09-26T05:58:11.024Z,14.07
2022-09-26T05:59:10.742Z,14.0818
2022-09-26T06:00:11.849Z,14.083
2022-09-26T06:01:11.026Z,14.085
2022-09-26T06:02:11.690Z,14.105
2022-09-26T06:03:11.397Z,14.105
2022-09-26T06:04:09.944Z,14.121
2022-09-26T06:05:11.918Z,14.136
2022-09-26T06:06:10.960Z,14.17
2022-09-26T06:07:10.977Z,14.171
2022-09-26T06:08:11.128Z,14.151
2022-09-26T06:09:10.098Z,14.2118
2022-09-26T06:10:11.510Z,14.2038
2022-09-26T06:11:10.774Z,14.2445
2022-09-26T06:12:10.484Z,14.275
2022-09-26T06:13:11.193Z,14.2961
2022-09-26T06:18:24.011Z,14.315
2022-09-26T06:18:35.382Z,14.3885
2022-09-26T06:18:38.355Z,14.378
2022-09-26T06:18:44.077Z,14.41
2022-09-26T06:19:10.547Z,14.41
2022-09-26T06:20:10.655Z,14.455
2022-09-26T06:21:11.815Z,14.48
2022-09-26T06:22:10.852Z,14.515
2022-09-26T06:23:11.037Z,14.52
2022-09-26T06:24:10.820Z,14.56
2022-09-26T06:25:10.807Z,14.595
2022-09-26T06:26:10.650Z,14.626
2022-09-26T06:27:11.907Z,14.655
2022-09-26T06:28:11.383Z,14.682
2022-09-26T06:29:10.078Z,14.695
2022-09-26T06:30:11.735Z,14.725
2022-09-26T06:31:11.299Z,14.755
2022-09-26T06:32:11.172Z,14.795
2022-09-26T06:33:11.383Z,14.78
2022-09-26T06:34:10.274Z,14.78
2022-09-26T06:35:10.778Z,14.8158
2022-09-26T06:36:11.264Z,14.873
2022-09-26T06:37:11.064Z,14.915
2022-09-26T06:38:11.010Z,14.97
2022-09-26T06:39:10.292Z,15.01
2022-09-26T06:40:10.870Z,15.02
2022-09-26T06:41:11.434Z,15.095
2022-09-26T06:42:10.571Z,15.1316
2022-09-26T06:43:11.097Z,15.16
2022-09-26T06:44:09.770Z,15.1891
2022-09-26T06:45:11.993Z,15.21
2022-09-26T06:46:10.884Z,15.255
2022-09-26T06:47:10.247Z,15.265
2022-09-26T06:48:11.781Z,15.3
2022-09-26T06:49:09.954Z,15.3
2022-09-26T06:50:11.207Z,15.362
2022-09-26T06:51:11.663Z,15.373
2022-09-26T06:52:10.892Z,15.41
2022-09-26T06:53:12.073Z,15.435
2022-09-26T06:54:10.214Z,15.44
2022-09-26T06:55:11.018Z,15.445
2022-09-26T06:56:11.981Z,15.465
2022-09-26T06:57:14.919Z,15.51
2022-09-26T06:58:10.810Z,15.525
2022-09-26T06:59:10.996Z,15.535
2022-09-26T07:00:11.210Z,15.57
2022-09-26T07:01:11.149Z,15.605
2022-09-26T07:02:11.412Z,15.644
2022-09-26T07:03:11.507Z,15.666
2022-09-26T07:04:09.817Z,15.71
2022-09-26T07:05:11.539Z,15.72
2022-09-26T07:06:11.440Z,15.745
2022-09-26T07:07:10.690Z,15.76
2022-09-26T07:08:11.807Z,15.785
2022-09-26T07:09:12.491Z,15.816
2022-09-26T07:10:11.222Z,15.839
2022-09-26T07:11:32.890Z,15.885
2022-09-26T07:12:15.518Z,15.89
2022-09-26T07:13:10.869Z,15.894
2022-09-26T07:14:11.269Z,15.935
2022-09-26T07:15:10.728Z,15.95
2022-09-26T07:16:11.667Z,15.985
2022-09-26T07:17:10.984Z,16.01
2022-09-26T07:18:10.673Z,16.015
2022-09-26T07:19:11.207Z,16.035
2022-09-26T07:20:11.098Z,16.07
2022-09-26T07:21:10.849Z,16.0927
2022-09-26T07:22:11.008Z,16.1107
2022-09-26T07:23:11.247Z,16.1316
2022-09-26T07:24:09.595Z,16.0872
2022-09-26T07:25:11.072Z,16.1153
2022-09-26T07:26:11.017Z,16.115
2022-09-26T07:27:10.507Z,16.1316
2022-09-26T07:28:10.708Z,16.1792
2022-09-26T07:29:09.912Z,16.2063
2022-09-26T07:30:11.084Z,16.2407
2022-09-26T07:31:11.289Z,16.2772
2022-09-26T07:32:10.937Z,16.327
2022-09-26T07:33:11.404Z,16.357
2022-09-26T07:34:13.437Z,16.4181
2022-09-26T07:35:10.936Z,16.44
2022-09-26T07:36:11.164Z,16.453
2022-09-26T07:37:11.452Z,16.4945
2022-09-26T07:38:10.796Z,16.51
2022-09-26T07:39:11.513Z,16.55
2022-09-26T07:40:10.870Z,16.575
2022-09-26T07:41:10.931Z,16.56
2022-09-26T07:42:11.235Z,16.59
2022-09-26T07:43:19.590Z,16.637
2022-09-26T07:45:31.469Z,16.545
2022-09-26T07:46:11.049Z,16.55
2022-09-26T07:47:10.861Z,16.56
2022-09-26T07:48:11.328Z,16.58
2022-09-26T07:49:11.036Z,16.57
2022-09-26T07:50:10.930Z,16.58
2022-09-26T07:51:11.571Z,16.626
2022-09-26T07:52:11.160Z,16.615
2022-09-26T07:53:10.768Z,16.58
2022-09-26T07:54:11.828Z,16.485
2022-09-26T07:55:10.953Z,16.44
2022-09-26T07:56:11.175Z,16.425
2022-09-26T07:57:11.324Z,16.362
2022-09-26T07:58:10.416Z,16.296
2022-09-26T07:59:11.103Z,16.194
2022-09-26T08:00:11.144Z,16.172
2022-09-26T08:01:11.163Z,16.16
2022-09-26T08:02:10.435Z,16.105
2022-09-26T08:03:11.694Z,16
2022-09-26T08:04:10.361Z,15.94
2022-09-26T08:05:11.870Z,15.8741
2022-09-26T08:06:11.059Z,15.828
2022-09-26T08:07:11.010Z,15.805
2022-09-26T08:08:11.720Z,15.775
2022-09-26T08:09:11.716Z,15.755
2022-09-26T08:10:10.588Z,15.715
2022-09-26T08:11:11.933Z,15.705
2022-09-26T08:12:10.442Z,15.709
2022-09-26T08:13:11.785Z,15.649
2022-09-26T08:14:09.973Z,15.6208
2022-09-26T08:15:11.025Z,15.585
2022-09-26T08:16:11.857Z,15.55
2022-09-26T08:17:14.250Z,15.525
2022-09-26T08:18:10.627Z,15.5
2022-09-26T08:19:11.977Z,15.515
2022-09-26T08:20:11.178Z,15.515
2022-09-26T08:21:11.072Z,15.545
2022-09-26T08:22:11.240Z,15.54
2022-09-26T08:23:11.097Z,15.545
2022-09-26T08:24:10.931Z,15.53
2022-09-26T08:25:11.267Z,15.52
2022-09-26T08:26:11.066Z,15.545
2022-09-26T08:27:11.099Z,15.545
2022-09-26T08:28:11.420Z,15.51
2022-09-26T08:29:10.388Z,15.495
2022-09-26T08:30:10.589Z,15.465
2022-09-26T08:31:11.577Z,15.414
2022-09-26T08:32:10.960Z,15.333
2022-09-26T08:33:10.297Z,15.395
2022-09-26T08:34:10.062Z,15.41
2022-09-26T08:35:10.817Z,15.385
2022-09-26T08:36:10.201Z,15.415
2022-09-26T08:37:11.195Z,15.43
2022-09-26T08:38:10.914Z,15.415
2022-09-26T08:39:11.767Z,15.44
2022-09-26T08:40:11.383Z,15.48
2022-09-26T08:41:10.791Z,15.465
2022-09-26T08:42:11.200Z,15.44
2022-09-26T08:43:11.174Z,15.42
2022-09-26T08:44:10.347Z,15.445
2022-09-26T08:45:11.179Z,15.43
2022-09-26T08:46:11.106Z,15.41
2022-09-26T08:47:10.936Z,15.4181
2022-09-26T08:48:11.297Z,15.383
2022-09-26T08:49:11.050Z,15.38
2022-09-26T08:50:11.268Z,15.3892
2022-09-26T08:51:11.368Z,15.4072
2022-09-26T08:52:10.884Z,15.41
2022-09-26T08:53:11.189Z,15.44
2022-09-26T08:54:10.180Z,15.48
2022-09-26T08:55:11.627Z,15.51
2022-09-26T08:56:10.957Z,15.495
2022-09-26T08:57:11.238Z,15.535
2022-09-26T08:58:11.068Z,15.57
2022-09-26T08:59:10.447Z,15.637
2022-09-26T09:00:10.837Z,15.683
2022-09-26T09:01:11.563Z,15.74
2022-09-26T09:02:10.877Z,15.725
2022-09-26T09:03:11.570Z,15.755
2022-09-26T09:04:09.983Z,15.785
2022-09-26T09:05:10.913Z,15.745
2022-09-26T09:06:10.841Z,15.8
2022-09-26T09:07:11.497Z,15.795
2022-09-26T09:08:10.967Z,15.8216
2022-09-26T09:09:11.298Z,15.856
2022-09-26T09:10:10.729Z,15.885
2022-09-26T09:11:11.540Z,15.9
2022-09-26T09:12:11.423Z,15.878
2022-09-26T09:13:11.197Z,15.845
2022-09-26T09:14:11.507Z,15.8791
2022-09-26T09:15:25.027Z,15.925
2022-09-26T09:16:10.604Z,15.93
2022-09-26T09:17:11.535Z,15.93
2022-09-26T09:18:13.535Z,15.94
2022-09-26T09:19:10.823Z,15.95
2022-09-26T09:20:11.572Z,15.975
2022-09-26T09:21:10.817Z,15.995
2022-09-26T09:22:11.891Z,15.98
2022-09-26T09:23:11.386Z,15.935
2022-09-26T09:24:10.344Z,15.925
2022-09-26T09:25:11.005Z,15.97
2022-09-26T09:28:11.802Z,16.005
2022-09-26T09:29:10.932Z,16.015
2022-09-26T09:30:16.533Z,15.985
2022-09-26T09:31:11.832Z,15.995
2022-09-26T09:32:11.428Z,16.015
2022-09-26T09:33:10.985Z,16.01
2022-09-26T09:34:09.849Z,16.015
2022-09-26T09:35:11.056Z,16.03
2022-09-26T09:36:10.753Z,16.01
2022-09-26T09:37:11.237Z,16.01
2022-09-26T09:38:11.291Z,16.04
2022-09-26T09:39:09.579Z,16.095
2022-09-26T09:40:11.512Z,16.115
2022-09-26T09:41:11.073Z,16.166
2022-09-26T09:42:10.506Z,16.194
2022-09-26T09:43:11.282Z,16.193
2022-09-26T09:44:10.512Z,16.2
2022-09-26T09:45:10.619Z,16.215
2022-09-26T09:46:11.343Z,16.24
2022-09-26T09:47:10.947Z,16.235
2022-09-26T09:48:10.613Z,16.225
2022-09-26T09:49:11.395Z,16.235
2022-09-26T09:50:11.184Z,16.21
2022-09-26T09:51:10.596Z,16.23
2022-09-26T09:52:10.834Z,16.255
2022-09-26T09:53:11.508Z,16.29
2022-09-26T09:54:10.102Z,16.28
2022-09-26T09:55:11.961Z,16.27
2022-09-26T09:56:11.334Z,16.24
2022-09-26T09:57:10.998Z,16.27
2022-09-26T09:58:11.234Z,16.255
2022-09-26T09:59:10.834Z,16.265
2022-09-26T10:00:10.407Z,16.317
2022-09-26T10:01:11.847Z,16.3683
2022-09-26T10:02:11.005Z,16.378
2022-09-26T10:03:10.866Z,16.435
2022-09-26T10:04:10.531Z,16.48
2022-09-26T10:05:11.097Z,16.475
2022-09-26T10:06:44.515Z,16.489
2022-09-26T10:07:11.448Z,16.5184
2022-09-26T10:08:11.197Z,16.55
2022-09-26T10:09:38.584Z,16.5927
2022-09-26T10:10:11.461Z,16.683
2022-09-26T10:11:11.279Z,16.705
2022-09-26T10:12:10.923Z,16.7554
2022-09-26T10:13:11.308Z,16.7638
2022-09-26T10:14:09.863Z,16.7772
2022-09-26T10:15:10.872Z,16.805
2022-09-26T10:16:11.071Z,16.795
2022-09-26T10:17:10.501Z,16.882
2022-09-26T10:18:24.662Z,16.912
2022-09-26T10:19:11.276Z,16.929
2022-09-26T10:20:10.888Z,16.935
2022-09-26T10:21:11.350Z,16.949
2022-09-26T10:22:11.470Z,16.9727
2022-09-26T10:23:11.032Z,16.955
2022-09-26T10:24:11.935Z,16.945
2022-09-26T10:25:11.313Z,16.925
2022-09-26T10:26:09.904Z,16.94
2022-09-26T10:27:11.220Z,16.955
2022-09-26T10:28:10.898Z,16.975
2022-09-26T10:29:10.900Z,16.99
2022-09-26T10:30:10.821Z,16.97
2022-09-26T10:31:11.264Z,16.975
2022-09-26T10:32:11.860Z,16.995
2022-09-26T10:33:11.543Z,16.98
2022-09-26T10:34:10.218Z,16.95
2022-09-26T10:35:11.056Z,16.945
2022-09-26T10:36:10.936Z,16.925
2022-09-26T10:37:10.789Z,16.884
2022-09-26T10:38:10.849Z,16.885
2022-09-26T10:39:11.447Z,16.895
2022-09-26T10:40:10.434Z,16.935
2022-09-26T10:41:12.224Z,16.965
2022-09-26T10:42:10.941Z,17.01
2022-09-26T10:43:11.349Z,17
2022-09-26T10:44:09.861Z,16.955
2022-09-26T10:45:10.066Z,16.945
2022-09-26T10:46:10.883Z,16.915
2022-09-26T10:47:11.166Z,16.856
2022-09-26T10:48:09.977Z,16.8216
2022-09-26T10:49:11.416Z,16.765
2022-09-26T10:50:11.482Z,16.745
2022-09-26T10:51:10.548Z,16.765
2022-09-26T10:52:16.002Z,16.79
2022-09-26T10:53:11.349Z,16.795
2022-09-26T10:54:10.889Z,16.856
2022-09-26T10:55:11.297Z,16.904
2022-09-26T10:56:10.856Z,16.94
2022-09-26T10:57:10.734Z,17.005
2022-09-26T10:58:13.880Z,17.05
2022-09-26T10:59:10.556Z,17.07
2022-09-26T11:00:09.897Z,17.115
2022-09-26T11:01:11.598Z,17.166
2022-09-26T11:02:10.969Z,17.195
2022-09-26T11:03:10.359Z,17.23
2022-09-26T11:04:10.303Z,17.265
2022-09-26T11:05:10.563Z,17.3
2022-09-26T11:06:10.954Z,17.333
2022-09-26T11:07:10.964Z,17.356
2022-09-26T11:08:10.663Z,17.393
2022-09-26T11:09:11.586Z,17.415
2022-09-26T11:10:10.863Z,17.44
2022-09-26T11:11:10.741Z,17.47
2022-09-26T11:12:11.193Z,17.495
2022-09-26T11:13:10.674Z,17.495
2022-09-26T11:14:09.889Z,17.54
2022-09-26T11:15:11.261Z,17.555
2022-09-26T11:16:10.951Z,17.57
2022-09-26T11:17:11.848Z,17.515
2022-09-26T11:18:10.784Z,17.485
2022-09-26T11:19:11.079Z,17.485
2022-09-26T11:20:11.386Z,17.45
2022-09-26T11:21:27.463Z,17.373
2022-09-26T11:22:10.945Z,17.311
2022-09-26T11:23:11.554Z,17.322
2022-09-26T11:26:28.263Z,17.285
2022-09-26T11:26:34.449Z,17.29
2022-09-26T11:33:54.272Z,17.3108
2022-09-26T11:34:01.077Z,17.29
2022-09-26T11:34:08.639Z,17.2609
2022-09-26T11:34:16.019Z,17.2315
2022-09-26T11:35:11.438Z,17.2592
2022-09-26T11:36:11.315Z,17.2881
2022-09-26T11:37:10.809Z,17.29
2022-09-26T11:38:11.384Z,17.287
2022-09-26T11:39:11.079Z,17.3227
2022-09-26T11:40:10.532Z,17.35
2022-09-26T11:41:11.185Z,17.3683
2022-09-26T11:42:10.858Z,17.327
2022-09-26T11:43:10.937Z,17.339
2022-09-26T11:44:11.553Z,17.329
2022-09-26T11:45:10.851Z,17.28
2022-09-26T11:46:11.469Z,17.265
2022-09-26T11:47:10.986Z,17.333
2022-09-26T11:48:10.668Z,17.356
2022-09-26T11:49:11.056Z,17.35
2022-09-26T11:50:11.059Z,17.4
2022-09-26T11:51:11.392Z,17.395
2022-09-26T11:52:11.556Z,17.41
2022-09-26T11:53:10.875Z,17.425
2022-09-26T11:54:11.636Z,17.435
2022-09-26T11:55:11.087Z,17.44
2022-09-26T11:56:10.737Z,17.44
2022-09-26T11:57:11.471Z,17.373
2022-09-26T11:58:10.684Z,17.35
2022-09-26T11:59:11.203Z,17.389
2022-09-26T12:00:11.753Z,17.395
2022-09-26T12:01:10.890Z,17.3683
2022-09-26T12:02:12.372Z,17.345
2022-09-26T12:03:11.671Z,17.339
2022-09-26T12:04:11.085Z,17.345
2022-09-26T12:05:11.741Z,17.378
2022-09-26T12:06:11.239Z,17.333
2022-09-26T12:07:11.023Z,17.327
2022-09-26T12:08:11.448Z,17.295
2022-09-26T12:09:11.606Z,17.25
2022-09-26T12:10:11.054Z,17.25
2022-09-26T12:11:12.097Z,17.225
2022-09-26T12:12:11.593Z,17.1841
2022-09-26T12:13:10.580Z,17.1891
2022-09-26T12:14:11.654Z,17.1841
2022-09-26T12:15:11.451Z,17.143
2022-09-26T12:16:11.326Z,17.121
2022-09-26T12:17:11.732Z,17.105
2022-09-26T12:18:11.258Z,17.115
2022-09-26T12:19:16.098Z,17.111
2022-09-26T12:20:11.240Z,17.045
2022-09-26T12:21:10.905Z,16.995
2022-09-26T12:22:11.313Z,16.995
2022-09-26T12:23:11.684Z,16.955
2022-09-26T12:24:11.034Z,16.95
2022-09-26T12:25:11.610Z,16.955
2022-09-26T12:26:11.329Z,16.92
2022-09-26T12:27:10.685Z,16.861
2022-09-26T12:28:11.322Z,16.862
2022-09-26T12:29:10.688Z,16.872
2022-09-26T12:30:10.608Z,16.91
2022-09-26T12:31:14.909Z,16.94
2022-09-26T12:32:11.320Z,16.945
2022-09-26T12:33:11.626Z,16.94
2022-09-26T12:34:11.289Z,16.985
2022-09-26T12:35:10.402Z,17.025
2022-09-26T12:36:11.584Z,16.995
2022-09-26T12:37:11.333Z,16.965
2022-09-26T12:38:10.810Z,16.91
2022-09-26T12:39:11.723Z,16.92
2022-09-26T12:40:11.315Z,16.975
2022-09-26T12:41:11.112Z,17
2022-09-26T12:42:11.513Z,17.04
2022-09-26T12:43:10.565Z,17.03